Time;durP1;ratioP1;P1;durP2;ratioP2;P2;SDS_P1;SDS_P2;PMS_P1;PMS_P2;Temp;Humidity;BMP_temperature;BMP_pressure;BME280_temperature;BME280_humidity;BME280_pressure;Samples;Min_cycle;Max_cycle;Signal;HPM_P1;HPM_P2
2022/03/11 00:00:22;;;;;;;24.07;14.77;;;1.80;99.90;;;;;;4995768;28;20026;-71
2022/03/11 00:02:47;;;;;;;23.40;14.60;;;1.80;99.90;;;;;;4995053;28;20030;-71
2022/03/11 00:05:13;;;;;;;25.90;14.83;;;2.00;99.90;;;;;;4995233;28;20027;-71
2022/03/11 00:07:38;;;;;;;21.87;13.27;;;1.90;99.90;;;;;;4994014;28;20042;-71
2022/03/11 00:10:04;;;;;;;23.27;13.67;;;1.80;99.90;;;;;;4995407;28;20044;-71
2022/03/11 00:12:30;;;;;;;22.57;13.17;;;1.70;99.90;;;;;;4995388;28;20097;-71
2022/03/11 00:14:56;;;;;;;21.67;13.40;;;1.70;99.90;;;;;;4995417;28;20031;-71
2022/03/11 00:17:23;;;;;;;21.77;13.77;;;1.70;99.90;;;;;;4995153;28;20530;-71
2022/03/11 00:19:48;;;;;;;20.77;12.80;;;1.70;99.90;;;;;;4995065;28;20022;-71
2022/03/11 00:22:14;;;;;;;20.97;13.03;;;1.60;99.90;;;;;;4995338;28;20108;-71
2022/03/11 00:24:40;;;;;;;21.00;13.03;;;1.50;99.90;;;;;;4995144;28;20041;-71
2022/03/11 00:27:05;;;;;;;21.80;12.07;;;1.40;99.90;;;;;;4993829;28;20022;-71
2022/03/11 00:29:31;;;;;;;19.30;11.97;;;1.50;99.90;;;;;;4995179;28;20109;-71
2022/03/11 00:31:57;;;;;;;23.40;12.10;;;1.50;99.90;;;;;;4994826;28;20419;-71
2022/03/11 00:34:22;;;;;;;23.23;11.73;;;1.60;99.90;;;;;;4994954;28;20030;-71
2022/03/11 00:36:48;;;;;;;19.00;10.60;;;1.60;99.90;;;;;;4993717;28;20089;-71
2022/03/11 00:39:13;;;;;;;16.87;10.33;;;1.60;99.90;;;;;;4994739;28;20092;-71
2022/03/11 00:41:39;;;;;;;19.43;10.13;;;1.40;99.90;;;;;;4994851;28;20050;-71
2022/03/11 00:44:05;;;;;;;16.30;9.60;;;1.40;99.90;;;;;;4994778;28;20507;-70
2022/03/11 00:46:31;;;;;;;17.60;9.20;;;1.30;99.90;;;;;;4994944;28;20063;-71
2022/03/11 00:48:56;;;;;;;15.73;9.10;;;1.20;99.90;;;;;;4977086;28;20034;-71
2022/03/11 00:51:22;;;;;;;15.17;8.30;;;1.10;99.90;;;;;;4994810;28;20054;-71
2022/03/11 00:53:47;;;;;;;15.73;8.53;;;1.00;99.90;;;;;;4994850;28;20035;-71
2022/03/11 00:56:13;;;;;;;15.40;9.17;;;1.00;99.90;;;;;;4994954;28;20033;-71
2022/03/11 00:58:39;;;;;;;16.67;8.17;;;1.00;99.90;;;;;;4994632;28;20391;-71
2022/03/11 01:01:04;;;;;;;13.57;7.53;;;0.90;99.90;;;;;;4994682;28;20054;-71
2022/03/11 01:03:30;;;;;;;12.20;6.73;;;1.00;99.90;;;;;;4994367;28;20030;-71
2022/03/11 01:05:55;;;;;;;12.77;8.03;;;0.90;99.80;;;;;;4994597;28;20058;-71
2022/03/11 01:08:21;;;;;;;16.10;6.83;;;0.90;99.40;;;;;;4994134;28;20050;-70
2022/03/11 01:10:46;;;;;;;10.43;6.17;;;0.80;99.50;;;;;;4994635;28;20431;-71
2022/03/11 01:13:12;;;;;;;9.80;6.03;;;0.70;98.70;;;;;;4994173;28;20126;-71
2022/03/11 01:15:37;;;;;;;14.60;6.20;;;0.80;98.80;;;;;;4994149;28;20109;-71
2022/03/11 01:18:03;;;;;;;13.43;6.87;;;0.90;98.30;;;;;;4994112;28;20030;-72
2022/03/11 01:20:28;;;;;;;10.70;6.77;;;1.00;97.90;;;;;;4976578;28;20026;-71
2022/03/11 01:22:54;;;;;;;15.97;6.67;;;1.00;97.60;;;;;;4994031;28;20071;-70
2022/03/11 01:25:20;;;;;;;11.50;5.77;;;1.00;97.30;;;;;;4993880;28;20022;-71
2022/03/11 01:27:45;;;;;;;11.50;5.90;;;0.90;97.40;;;;;;4976752;28;20110;-70
2022/03/11 01:30:13;;;;;;;9.80;5.93;;;0.80;97.20;;;;;;4993924;28;20088;-71
2022/03/11 01:32:41;;;;;;;11.03;5.53;;;0.90;97.00;;;;;;4994126;28;20443;-71
2022/03/11 01:35:07;;;;;;;9.93;5.70;;;0.70;97.00;;;;;;4993887;28;20038;-72
2022/03/11 01:37:33;;;;;;;8.63;5.40;;;0.60;97.00;;;;;;4993864;28;20513;-70
2022/03/11 01:39:58;;;;;;;10.00;5.53;;;0.60;96.90;;;;;;4993966;28;20026;-70
2022/03/11 01:42:24;;;;;;;10.93;5.63;;;0.50;96.80;;;;;;4993781;28;20076;-70
2022/03/11 01:44:52;;;;;;;9.33;5.43;;;0.60;96.80;;;;;;4976092;28;20472;-71
2022/03/11 01:47:17;;;;;;;9.17;5.20;;;0.50;96.70;;;;;;4993844;28;20033;-71
2022/03/11 01:49:44;;;;;;;11.07;5.33;;;0.30;96.80;;;;;;4992013;28;20026;-71
2022/03/11 01:52:12;;;;;;;8.77;5.10;;;0.30;97.20;;;;;;4976343;28;20130;-71
2022/03/11 01:54:41;;;;;;;8.83;5.00;;;0.10;97.00;;;;;;4993480;28;20472;-71
2022/03/11 01:57:07;;;;;;;9.63;4.80;;;0.10;97.00;;;;;;4993570;28;20498;-71
2022/03/11 01:59:33;;;;;;;10.60;5.40;;;0.10;96.80;;;;;;4993626;28;20037;-71
2022/03/11 02:01:58;;;;;;;7.33;4.60;;;0.20;96.40;;;;;;4993496;28;20022;-71
2022/03/11 02:04:24;;;;;;;8.27;4.93;;;0.20;96.20;;;;;;4993099;28;20117;-70
2022/03/11 02:06:50;;;;;;;8.30;5.43;;;0.20;96.20;;;;;;4993294;28;20471;-71
2022/03/11 02:09:15;;;;;;;8.17;4.77;;;0.20;96.20;;;;;;4993427;28;20038;-71
2022/03/11 02:11:41;;;;;;;8.77;4.93;;;0.00;96.20;;;;;;4992622;28;20065;-71
2022/03/11 02:14:06;;;;;;;10.73;5.23;;;-0.10;96.40;;;;;;4993195;28;20084;-71
2022/03/11 02:16:37;;;;;;;9.27;4.83;;;0.00;96.20;;;;;;4976445;28;20089;-71
2022/03/11 02:19:05;;;;;;;9.60;4.70;;;-0.10;96.20;;;;;;4993156;28;20472;-71
2022/03/11 02:21:34;;;;;;;8.67;4.93;;;-0.20;96.30;;;;;;4992798;28;20109;-71
2022/03/11 02:24:00;;;;;;;11.77;4.97;;;-0.20;96.30;;;;;;4993114;28;20687;-70
2022/03/11 02:26:28;;;;;;;8.60;4.80;;;-0.20;96.50;;;;;;4993130;28;20026;-71
2022/03/11 02:28:55;;;;;;;9.97;4.97;;;-0.20;96.20;;;;;;4993296;28;20036;-71
2022/03/11 02:31:26;;;;;;;8.60;4.30;;;-0.20;96.10;;;;;;4992909;28;20040;-71
2022/03/11 02:33:51;;;;;;;9.77;5.23;;;-0.20;96.10;;;;;;4975571;28;20077;-70
2022/03/11 02:36:18;;;;;;;8.20;4.50;;;-0.30;96.20;;;;;;4992987;28;20034;-70
2022/03/11 02:38:44;;;;;;;8.57;5.07;;;-0.30;96.10;;;;;;4992783;28;20091;-71
2022/03/11 02:41:10;;;;;;;8.10;4.70;;;-0.30;96.00;;;;;;4975187;28;20540;-71
2022/03/11 02:43:36;;;;;;;10.27;5.07;;;-0.40;96.30;;;;;;4975510;28;20084;-71
2022/03/11 02:46:02;;;;;;;13.43;4.73;;;-0.50;96.20;;;;;;4992798;28;20019;-71
2022/03/11 02:48:27;;;;;;;7.50;4.37;;;-0.50;96.10;;;;;;4992516;28;20033;-71
2022/03/11 02:50:53;;;;;;;7.33;4.53;;;-0.60;96.20;;;;;;4992738;28;20025;-70
2022/03/11 02:53:19;;;;;;;12.07;4.87;;;-0.70;96.40;;;;;;4991685;28;20030;-71
2022/03/11 02:55:44;;;;;;;12.20;5.10;;;-0.60;96.40;;;;;;4992504;28;20034;-70
2022/03/11 02:58:10;;;;;;;13.30;5.50;;;-0.60;96.40;;;;;;4992651;28;20038;-71
2022/03/11 03:00:36;;;;;;;10.93;5.97;;;-0.70;96.30;;;;;;4991782;28;20033;-70
2022/03/11 03:03:02;;;;;;;10.33;5.70;;;-0.70;96.40;;;;;;4992099;28;20037;-70
2022/03/11 03:05:28;;;;;;;9.63;4.87;;;-0.70;96.50;;;;;;4992339;28;20356;-70
2022/03/11 03:07:54;;;;;;;11.37;5.20;;;-0.60;96.20;;;;;;4991908;28;20047;-70
2022/03/11 03:10:19;;;;;;;10.63;4.47;;;-0.60;96.30;;;;;;4992844;28;20033;-71
2022/03/11 03:12:45;;;;;;;8.53;4.83;;;-0.70;96.40;;;;;;4992520;28;20100;-70
2022/03/11 03:15:11;;;;;;;10.93;4.53;;;-0.80;96.60;;;;;;4992180;28;20022;-71
2022/03/11 03:17:37;;;;;;;12.00;5.50;;;-0.80;96.70;;;;;;4991960;28;20070;-70
2022/03/11 03:20:05;;;;;;;13.27;5.07;;;-0.90;96.90;;;;;;4992183;28;20022;-71
2022/03/11 03:22:31;;;;;;;9.23;4.70;;;-0.90;96.80;;;;;;4992210;28;20018;-71
2022/03/11 03:24:56;;;;;;;9.90;5.10;;;-0.90;97.00;;;;;;4991938;28;20574;-71
2022/03/11 03:27:22;;;;;;;12.63;5.73;;;-0.80;97.00;;;;;;4990886;28;20025;-71
2022/03/11 03:29:47;;;;;;;9.73;5.37;;;-0.90;97.00;;;;;;4992396;28;20023;-71
2022/03/11 03:32:13;;;;;;;11.63;5.63;;;-0.90;97.20;;;;;;4992395;28;20022;-71
2022/03/11 03:34:39;;;;;;;10.87;4.87;;;-0.80;97.00;;;;;;4991069;28;20023;-71
2022/03/11 03:37:09;;;;;;;8.67;4.80;;;-0.90;97.10;;;;;;4990754;28;20480;-70
2022/03/11 03:39:40;;;;;;;9.60;5.20;;;-0.90;97.30;;;;;;4973026;28;20487;-71
2022/03/11 03:42:06;;;;;;;7.83;4.90;;;-0.90;97.50;;;;;;4986194;28;20441;-70
2022/03/11 03:44:31;;;;;;;10.40;5.20;;;-0.90;97.40;;;;;;4991730;28;20030;-70
2022/03/11 03:46:57;;;;;;;9.10;5.27;;;-0.80;97.30;;;;;;4991063;28;20019;-71
2022/03/11 03:49:23;;;;;;;9.13;5.60;;;-0.80;97.50;;;;;;4991747;28;20471;-71
2022/03/11 03:51:50;;;;;;;14.43;5.87;;;-0.80;97.40;;;;;;4991702;28;20137;-71
2022/03/11 03:54:17;;;;;;;11.17;5.23;;;-0.80;97.60;;;;;;4990744;28;20547;-71
2022/03/11 03:56:43;;;;;;;10.87;5.53;;;-0.80;97.70;;;;;;4992288;28;20022;-71
2022/03/11 03:59:11;;;;;;;11.13;5.80;;;-0.70;97.60;;;;;;4974604;28;20065;-71
2022/03/11 04:01:39;;;;;;;11.37;5.50;;;-0.70;98.10;;;;;;4992042;28;20084;-71
2022/03/11 04:04:06;;;;;;;10.93;5.80;;;-0.60;97.60;;;;;;4992087;28;20082;-71
2022/03/11 04:06:34;;;;;;;8.97;5.10;;;-0.70;97.70;;;;;;4991959;28;20070;-71
2022/03/11 04:09:00;;;;;;;15.73;5.93;;;-0.80;97.80;;;;;;4992177;28;20050;-71
2022/03/11 04:11:27;;;;;;;10.87;5.57;;;-0.80;98.00;;;;;;4992807;28;20030;-71
2022/03/11 04:13:54;;;;;;;12.47;5.70;;;-0.80;98.20;;;;;;4995723;28;20077;-72
2022/03/11 04:16:20;;;;;;;10.47;5.00;;;-0.90;98.40;;;;;;4978160;28;20030;-71
2022/03/11 04:18:47;;;;;;;8.90;5.73;;;-0.90;98.50;;;;;;4995681;28;20031;-71
2022/03/11 04:21:13;;;;;;;11.03;5.07;;;-0.90;98.50;;;;;;4995610;28;20045;-71
2022/03/11 04:23:40;;;;;;;11.23;5.83;;;-0.90;98.60;;;;;;4995347;28;20030;-72
2022/03/11 04:26:06;;;;;;;11.63;5.93;;;-1.00;98.60;;;;;;4994298;28;20030;-71
2022/03/11 04:28:32;;;;;;;11.60;6.37;;;-0.90;98.80;;;;;;4993900;28;20049;-71
2022/03/11 04:30:58;;;;;;;11.80;5.97;;;-1.00;99.00;;;;;;4995308;28;20026;-71
2022/03/11 04:33:24;;;;;;;11.83;6.37;;;-0.90;99.30;;;;;;4993960;28;20502;-70
2022/03/11 04:35:50;;;;;;;11.17;5.73;;;-1.00;99.00;;;;;;4993961;28;20027;-71
2022/03/11 04:38:15;;;;;;;14.37;6.47;;;-1.00;99.20;;;;;;4995158;28;20518;-71
2022/03/11 04:40:41;;;;;;;13.23;6.73;;;-1.00;99.40;;;;;;4995222;28;20088;-70
2022/03/11 04:43:07;;;;;;;12.60;6.13;;;-1.10;99.70;;;;;;4995031;28;20097;-70
2022/03/11 04:45:32;;;;;;;11.50;6.40;;;-1.10;99.70;;;;;;4977785;28;20065;-71
2022/03/11 04:47:58;;;;;;;15.03;7.10;;;-1.20;99.80;;;;;;4995197;28;20026;-70
2022/03/11 04:50:24;;;;;;;17.77;6.97;;;-1.10;99.90;;;;;;4995666;28;20426;-71
2022/03/11 04:52:49;;;;;;;14.50;6.67;;;-1.10;99.90;;;;;;4995133;28;20101;-71
2022/03/11 04:55:16;;;;;;;13.80;7.37;;;-1.20;99.90;;;;;;4995308;28;20031;-71
2022/03/11 04:57:42;;;;;;;17.60;8.97;;;-1.10;99.90;;;;;;4995290;28;20029;-70
2022/03/11 05:00:08;;;;;;;17.57;7.13;;;-1.10;99.90;;;;;;4995119;28;20026;-70
2022/03/11 05:02:34;;;;;;;19.20;7.83;;;-1.00;99.90;;;;;;4993630;28;20041;-70
2022/03/11 05:05:07;;;;;;;12.43;6.87;;;-1.10;99.90;;;;;;4995338;28;20452;-71
2022/03/11 05:07:33;;;;;;;10.43;6.13;;;-1.00;99.90;;;;;;4994651;28;20137;-71
2022/03/11 05:09:59;;;;;;;18.20;13.93;;;-1.20;99.90;;;;;;4994918;28;20081;-70
2022/03/11 05:12:24;;;;;;;13.77;7.33;;;-1.10;99.90;;;;;;4995136;28;20031;-70
2022/03/11 05:14:50;;;;;;;61.57;28.90;;;-1.10;99.90;;;;;;4994983;28;20039;-70
2022/03/11 05:17:16;;;;;;;20.97;12.70;;;-1.20;99.90;;;;;;4994956;28;20045;-70
2022/03/11 05:19:43;;;;;;;13.00;7.77;;;-1.30;99.90;;;;;;4994979;28;20034;-70
2022/03/11 05:22:08;;;;;;;12.57;7.80;;;-1.20;99.90;;;;;;4991570;28;20105;-70
2022/03/11 05:24:35;;;;;;;12.87;7.43;;;-1.20;99.90;;;;;;4984478;28;20062;-70
2022/03/11 05:27:02;;;;;;;12.90;6.83;;;-1.20;99.90;;;;;;4993030;28;20085;-70
2022/03/11 05:29:28;;;;;;;12.37;6.80;;;-1.30;99.90;;;;;;4994702;28;20536;-70
2022/03/11 05:31:54;;;;;;;15.57;7.13;;;-1.40;99.90;;;;;;4987715;28;20019;-70
2022/03/11 05:34:19;;;;;;;13.83;7.67;;;-1.30;99.90;;;;;;4978025;28;20027;-70
2022/03/11 05:36:45;;;;;;;18.70;9.20;;;-1.30;99.90;;;;;;4983488;28;20022;-69
2022/03/11 05:39:11;;;;;;;11.50;6.97;;;-1.50;99.90;;;;;;4980651;28;20026;-70
2022/03/11 05:41:36;;;;;;;14.50;7.87;;;-1.30;99.90;;;;;;4975873;28;20457;-70
2022/03/11 05:44:02;;;;;;;13.13;6.60;;;-1.40;99.90;;;;;;4992093;28;20030;-70
2022/03/11 05:46:27;;;;;;;12.03;7.00;;;-1.30;99.90;;;;;;4988269;28;20026;-70
2022/03/11 05:48:53;;;;;;;20.13;6.73;;;-1.40;99.90;;;;;;4976460;28;20400;-70
2022/03/11 05:51:19;;;;;;;12.83;6.70;;;-1.40;99.90;;;;;;4988439;28;20117;-70
2022/03/11 05:53:45;;;;;;;10.83;6.70;;;-1.50;99.90;;;;;;4986145;28;20030;-70
2022/03/11 05:56:10;;;;;;;12.97;7.13;;;-1.50;99.90;;;;;;4986389;28;20056;-70
2022/03/11 05:58:36;;;;;;;14.70;7.20;;;-1.60;99.90;;;;;;4987381;28;20103;-70
2022/03/11 06:01:02;;;;;;;14.93;6.67;;;-1.50;99.90;;;;;;4986661;28;20030;-70
2022/03/11 06:03:27;;;;;;;16.90;7.13;;;-1.30;99.90;;;;;;4985736;28;20085;-70
2022/03/11 06:05:53;;;;;;;16.67;7.23;;;-1.40;99.90;;;;;;4975011;28;20027;-71
2022/03/11 06:08:18;;;;;;;16.40;7.80;;;-1.40;99.90;;;;;;4975013;28;20110;-71
2022/03/11 06:10:46;;;;;;;18.27;8.13;;;-1.50;99.90;;;;;;4988520;28;20049;-71
2022/03/11 06:13:11;;;;;;;12.43;7.17;;;-1.50;99.90;;;;;;4990539;28;20034;-70
2022/03/11 06:15:37;;;;;;;18.40;7.53;;;-1.60;99.90;;;;;;4989356;28;20031;-70
2022/03/11 06:18:02;;;;;;;11.90;6.80;;;-1.50;99.90;;;;;;4982575;28;20037;-71
2022/03/11 06:20:30;;;;;;;15.83;6.93;;;-1.40;99.90;;;;;;4993252;28;20121;-70
2022/03/11 06:22:56;;;;;;;14.60;7.10;;;-1.40;99.90;;;;;;4993465;28;20026;-70
2022/03/11 06:25:22;;;;;;;15.50;7.80;;;-1.40;99.90;;;;;;4993507;28;20057;-71
2022/03/11 06:27:47;;;;;;;13.80;7.97;;;-1.30;99.90;;;;;;4993083;28;20459;-71
2022/03/11 06:30:14;;;;;;;15.37;7.63;;;-1.20;99.90;;;;;;4992244;28;20142;-70
2022/03/11 06:32:44;;;;;;;14.90;7.60;;;-1.10;99.90;;;;;;4991297;28;20076;-72
2022/03/11 06:35:13;;;;;;;14.47;7.73;;;-1.00;99.90;;;;;;4991827;28;20037;-70
2022/03/11 06:37:39;;;;;;;12.60;7.50;;;-1.00;99.90;;;;;;4990034;28;20098;-70
2022/03/11 06:40:06;;;;;;;20.90;7.20;;;-1.00;99.90;;;;;;4984848;28;20516;-78
2022/03/11 06:42:35;;;;;;;14.67;7.47;;;-0.80;99.90;;;;;;4977577;28;20085;-75
2022/03/11 06:45:01;;;;;;;13.33;7.20;;;-0.80;99.90;;;;;;4981439;28;20084;-73
2022/03/11 06:47:27;;;;;;;16.67;8.03;;;-0.70;99.90;;;;;;4986734;28;20404;-73
2022/03/11 06:49:52;;;;;;;19.50;8.63;;;-0.60;99.90;;;;;;4986888;28;20042;-73
2022/03/11 06:52:18;;;;;;;16.10;7.17;;;-0.60;99.90;;;;;;4982729;28;20065;-73
2022/03/11 06:54:43;;;;;;;13.23;7.20;;;-0.40;99.90;;;;;;4982632;28;20034;-71
2022/03/11 06:57:10;;;;;;;14.10;6.73;;;-0.50;99.90;;;;;;4987911;28;20035;-70
2022/03/11 06:59:37;;;;;;;15.90;8.10;;;-0.50;99.90;;;;;;4972454;28;20038;-71
2022/03/11 07:02:03;;;;;;;16.27;6.27;;;-0.30;99.90;;;;;;4971569;28;20150;-70
2022/03/11 07:04:28;;;;;;;17.33;7.93;;;-0.20;99.90;;;;;;4988210;28;20030;-71
2022/03/11 07:06:54;;;;;;;14.40;7.67;;;-0.20;99.90;;;;;;4986536;28;20339;-71
2022/03/11 07:09:19;;;;;;;15.40;7.73;;;0.00;99.90;;;;;;4988817;28;20507;-71
2022/03/11 07:11:46;;;;;;;14.13;8.00;;;0.00;99.90;;;;;;4989149;28;20037;-70
2022/03/11 07:14:12;;;;;;;13.80;7.23;;;0.00;99.90;;;;;;4973237;28;20034;-71
2022/03/11 07:16:38;;;;;;;13.67;7.00;;;0.00;99.90;;;;;;4972405;28;20063;-71
2022/03/11 07:19:03;;;;;;;16.53;8.40;;;0.10;99.90;;;;;;4991208;28;20124;-72
2022/03/11 07:21:29;;;;;;;13.70;7.63;;;0.30;99.90;;;;;;4991328;28;20054;-71
2022/03/11 07:23:56;;;;;;;14.00;7.67;;;0.30;99.90;;;;;;4990346;28;20379;-71
2022/03/11 07:26:22;;;;;;;14.30;7.30;;;0.30;99.90;;;;;;4990970;28;20026;-72
2022/03/11 07:28:48;;;;;;;16.63;7.50;;;0.40;99.90;;;;;;4973920;28;20080;-71
2022/03/11 07:31:13;;;;;;;16.40;7.47;;;0.50;99.90;;;;;;4969908;28;20117;-79
2022/03/11 07:33:39;;;;;;;15.60;7.63;;;0.50;99.90;;;;;;4987405;28;20053;-79
2022/03/11 07:36:05;;;;;;;17.27;7.77;;;0.60;99.90;;;;;;4987652;28;20031;-79
2022/03/11 07:38:33;;;;;;;15.40;7.30;;;0.80;99.90;;;;;;4987616;28;20078;-79
2022/03/11 07:40:59;;;;;;;13.43;8.17;;;0.80;99.90;;;;;;4987041;28;20034;-79
2022/03/11 07:43:25;;;;;;;20.17;8.70;;;1.00;99.90;;;;;;4987473;28;20061;-79
2022/03/11 07:45:52;;;;;;;13.77;7.83;;;1.00;99.90;;;;;;4987857;28;20030;-72
2022/03/11 07:48:18;;;;;;;20.17;8.03;;;1.00;99.90;;;;;;4990592;28;20137;-79
2022/03/11 07:50:44;;;;;;;15.73;9.03;;;1.00;99.90;;;;;;4990835;28;20095;-79
2022/03/11 07:53:10;;;;;;;17.70;9.50;;;1.10;99.90;;;;;;4989315;28;20030;-79
2022/03/11 07:55:35;;;;;;;20.40;9.97;;;1.10;99.90;;;;;;4991032;28;20030;-78
2022/03/11 07:58:01;;;;;;;14.80;8.37;;;1.30;99.90;;;;;;4990870;28;20046;-79
2022/03/11 08:00:26;;;;;;;19.10;8.37;;;1.40;99.90;;;;;;4984992;28;20034;-74
2022/03/11 08:02:52;;;;;;;14.17;7.47;;;1.50;99.90;;;;;;4989535;28;20438;-74
2022/03/11 08:05:18;;;;;;;17.00;8.33;;;1.50;99.90;;;;;;4992870;28;20724;-74
2022/03/11 08:07:45;;;;;;;15.60;7.83;;;1.60;99.90;;;;;;4993292;28;20101;-73
2022/03/11 08:10:11;;;;;;;22.13;8.53;;;1.70;99.90;;;;;;4994448;28;20101;-73
2022/03/11 08:12:36;;;;;;;11.73;7.70;;;1.60;99.90;;;;;;4992168;28;20125;-78
2022/03/11 08:15:04;;;;;;;14.17;8.50;;;1.80;99.90;;;;;;4990563;28;20034;-78
2022/03/11 08:17:30;;;;;;;17.73;8.07;;;1.80;99.90;;;;;;4991194;28;20053;-78
2022/03/11 08:19:55;;;;;;;16.20;8.33;;;1.80;99.90;;;;;;4990510;28;20074;-78
2022/03/11 08:22:21;;;;;;;14.60;8.47;;;2.00;99.90;;;;;;4990213;28;20038;-78
2022/03/11 08:24:46;;;;;;;16.90;8.30;;;2.10;99.90;;;;;;4990214;28;20038;-78
2022/03/11 08:27:14;;;;;;;19.10;7.70;;;2.30;99.90;;;;;;4989933;28;20041;-78
2022/03/11 08:29:40;;;;;;;16.97;8.37;;;2.30;99.70;;;;;;4990681;28;20026;-79
2022/03/11 08:32:06;;;;;;;14.57;8.27;;;2.30;99.40;;;;;;4990434;28;20056;-79
2022/03/11 08:34:32;;;;;;;16.67;8.60;;;2.30;99.80;;;;;;4990033;28;20038;-79
2022/03/11 08:36:57;;;;;;;13.43;8.20;;;2.40;99.80;;;;;;4989644;28;20034;-79
2022/03/11 08:39:23;;;;;;;16.73;8.83;;;2.40;99.90;;;;;;4985353;28;20563;-78
2022/03/11 08:41:48;;;;;;;16.53;8.50;;;2.70;99.90;;;;;;4981603;28;20054;-78
2022/03/11 08:44:14;;;;;;;16.43;9.53;;;2.90;99.00;;;;;;4987828;28;20034;-78
2022/03/11 08:46:40;;;;;;;16.60;8.53;;;3.10;98.80;;;;;;4987882;28;20027;-72
2022/03/11 08:49:07;;;;;;;15.13;8.53;;;3.30;98.20;;;;;;4983397;28;20034;-74
2022/03/11 08:51:33;;;;;;;17.23;9.07;;;3.30;98.40;;;;;;4995797;28;20022;-71
2022/03/11 08:53:58;;;;;;;14.27;8.67;;;3.40;97.90;;;;;;4995449;28;20036;-72
2022/03/11 08:56:24;;;;;;;22.80;9.17;;;3.50;97.50;;;;;;4978754;28;20451;-72
2022/03/11 08:58:50;;;;;;;16.97;9.53;;;3.70;97.40;;;;;;4994658;28;20030;-73
2022/03/11 09:01:17;;;;;;;14.87;8.93;;;3.80;97.20;;;;;;4993997;28;20066;-77
2022/03/11 09:03:43;;;;;;;15.53;8.43;;;4.10;96.90;;;;;;4989288;28;20034;-77
2022/03/11 09:06:11;;;;;;;19.50;10.77;;;4.20;96.70;;;;;;4990921;28;20442;-77
2022/03/11 09:08:36;;;;;;;18.30;9.77;;;4.40;96.50;;;;;;4995204;28;20050;-73
2022/03/11 09:11:02;;;;;;;14.20;8.33;;;4.70;96.20;;;;;;4994943;28;20057;-72
2022/03/11 09:13:27;;;;;;;18.37;9.13;;;5.20;95.90;;;;;;4977164;28;20065;-72
2022/03/11 09:15:53;;;;;;;12.57;8.10;;;5.40;94.40;;;;;;4994300;28;20096;-72
2022/03/11 09:18:18;;;;;;;14.13;8.73;;;5.50;93.80;;;;;;4977369;28;20034;-72
2022/03/11 09:20:44;;;;;;;19.03;9.10;;;5.50;93.30;;;;;;4993292;28;20037;-72
2022/03/11 09:23:11;;;;;;;14.97;8.30;;;5.80;93.40;;;;;;4992917;28;20117;-71
2022/03/11 09:25:37;;;;;;;15.27;8.30;;;5.70;92.90;;;;;;4994675;28;20238;-71
2022/03/11 09:28:03;;;;;;;16.43;8.03;;;5.60;93.30;;;;;;4994472;28;20029;-71
2022/03/11 09:30:29;;;;;;;17.30;8.23;;;5.50;92.80;;;;;;5009425;28;20030;-71
2022/03/11 09:32:54;;;;;;;16.17;8.80;;;5.90;92.50;;;;;;4994496;28;20073;-72
2022/03/11 09:35:20;;;;;;;13.50;8.17;;;6.20;92.00;;;;;;4993892;28;20447;-71
2022/03/11 09:37:46;;;;;;;15.13;8.97;;;6.10;92.40;;;;;;4993668;28;20515;-71
2022/03/11 09:40:12;;;;;;;14.83;8.33;;;6.80;91.50;;;;;;4993180;28;20472;-71
2022/03/11 09:42:38;;;;;;;14.67;8.13;;;7.00;90.50;;;;;;4993492;28;20049;-71
2022/03/11 09:45:04;;;;;;;16.83;7.90;;;7.00;90.00;;;;;;4993320;28;20459;-71
2022/03/11 09:47:30;;;;;;;13.20;8.43;;;7.10;89.70;;;;;;4993416;28;20053;-71
2022/03/11 09:49:56;;;;;;;14.73;8.90;;;7.30;89.00;;;;;;4993603;28;20456;-72
2022/03/11 09:52:23;;;;;;;12.90;8.10;;;7.30;90.00;;;;;;4993497;28;20054;-72
2022/03/11 09:54:49;;;;;;;13.57;7.70;;;7.80;87.50;;;;;;4992943;28;20383;-71
2022/03/11 09:57:22;;;;;;;24.33;8.80;;;8.10;86.50;;;;;;4992201;28;20030;-72
2022/03/11 09:59:47;;;;;;;15.97;8.43;;;8.30;85.00;;;;;;4993613;28;20084;-71
2022/03/11 10:02:14;;;;;;;15.20;7.97;;;8.20;84.80;;;;;;4993692;28;20050;-72
2022/03/11 10:04:56;;;;;;;10.53;7.73;;;8.20;84.70;;;;;;4972030;28;20508;-71
2022/03/11 10:07:27;;;;;;;15.60;8.20;;;8.60;81.90;;;;;;4990256;28;20599;-72
2022/03/11 10:09:56;;;;;;;14.20;8.43;;;8.90;81.20;;;;;;4993893;28;20407;-71
2022/03/11 10:12:28;;;;;;;12.97;8.17;;;8.90;80.90;;;;;;4976898;28;20383;-71
2022/03/11 10:14:58;;;;;;;20.47;10.23;;;8.80;79.30;;;;;;4976309;28;20496;-71
2022/03/11 10:17:25;;;;;;;12.10;8.07;;;8.90;80.40;;;;;;4992926;28;20035;-71
2022/03/11 10:20:05;;;;;;;14.60;8.47;;;9.10;80.20;;;;;;4993917;28;20054;-71
2022/03/11 10:22:34;;;;;;;18.50;9.37;;;9.80;78.20;;;;;;4976641;28;20479;-72
2022/03/11 10:25:14;;;;;;;18.77;8.60;;;9.80;78.10;;;;;;4993738;28;20041;-71
2022/03/11 10:28:14;;;;;;;12.40;8.23;;;10.10;75.40;;;;;;4975956;28;20372;-72
2022/03/11 10:30:42;;;;;;;16.17;8.30;;;10.00;75.60;;;;;;4961177;28;20038;-71
2022/03/11 10:33:11;;;;;;;16.00;8.97;;;9.90;76.20;;;;;;4989718;28;20542;-71
2022/03/11 10:35:37;;;;;;;14.93;9.00;;;10.10;75.20;;;;;;4980548;28;20034;-71
2022/03/11 10:38:06;;;;;;;15.87;8.90;;;10.20;75.50;;;;;;4993482;28;20027;-71
2022/03/11 10:40:32;;;;;;;13.70;8.73;;;10.30;74.20;;;;;;4993205;28;20360;-71
2022/03/11 10:43:12;;;;;;;13.43;8.80;;;10.40;73.60;;;;;;4993029;28;20081;-71
2022/03/11 10:46:07;;;;;;;15.60;8.57;;;10.40;73.60;;;;;;4993157;28;20033;-71
2022/03/11 10:48:53;;;;;;;15.00;8.87;;;10.40;73.40;;;;;;4993508;28;20022;-71
2022/03/11 10:51:19;;;;;;;16.93;9.67;;;10.40;73.30;;;;;;4992328;28;20098;-71
2022/03/11 10:53:49;;;;;;;15.35;8.73;;;10.60;73.00;;;;;;4993375;28;20030;-71
2022/03/11 10:56:35;;;;;;;15.43;9.60;;;10.60;72.00;;;;;;4992833;28;20117;-71
2022/03/11 10:59:28;;;;;;;12.20;7.83;;;10.80;71.90;;;;;;4992596;28;20372;-72
2022/03/11 11:01:56;;;;;;;14.55;9.02;;;11.00;71.00;;;;;;4986306;28;20779;-72
2022/03/11 11:04:22;;;;;;;17.10;8.70;;;11.20;70.90;;;;;;4992443;28;20027;-71
2022/03/11 11:06:49;;;;;;;14.67;9.20;;;11.00;71.50;;;;;;4992310;28;20037;-71
2022/03/11 11:09:17;;;;;;;14.70;8.80;;;11.20;68.20;;;;;;5001418;28;20058;-78
2022/03/11 11:11:43;;;;;;;16.50;9.02;;;11.20;69.90;;;;;;5005932;28;20113;-79
2022/03/11 11:14:10;;;;;;;20.48;12.13;;;11.20;69.30;;;;;;4990710;28;20031;-79
2022/03/11 11:16:40;;;;;;;14.05;8.90;;;11.30;68.80;;;;;;4990356;28;20034;-79
2022/03/11 11:19:11;;;;;;;14.65;9.15;;;11.50;68.10;;;;;;4990612;28;20026;-79
2022/03/11 11:21:39;;;;;;;16.90;9.65;;;11.50;67.40;;;;;;4988668;28;20030;-79
2022/03/11 11:24:14;;;;;;;15.27;10.18;;;11.80;68.30;;;;;;4990639;28;20045;-79
2022/03/11 11:26:42;;;;;;;12.90;9.23;;;12.00;67.50;;;;;;4987839;28;20018;-79
2022/03/11 11:29:08;;;;;;;14.10;10.10;;;11.90;66.30;;;;;;4982150;28;20026;-73
2022/03/11 11:31:34;;;;;;;15.85;10.43;;;11.80;66.60;;;;;;4990248;28;20031;-73
2022/03/11 11:33:59;;;;;;;17.77;9.82;;;11.80;66.50;;;;;;4990329;28;20112;-73
2022/03/11 11:36:38;;;;;;;14.27;9.25;;;11.60;65.90;;;;;;4987336;28;20077;-79
2022/03/11 11:39:07;;;;;;;18.17;10.45;;;11.50;66.50;;;;;;4986523;28;20050;-79
2022/03/11 11:41:34;;;;;;;15.00;9.27;;;11.50;67.10;;;;;;4987329;28;20105;-79
2022/03/11 11:44:02;;;;;;;16.77;10.25;;;11.70;66.20;;;;;;4980738;28;20050;-79
2022/03/11 11:46:30;;;;;;;14.77;9.25;;;11.80;66.50;;;;;;4967711;28;20494;-79
2022/03/11 11:48:57;;;;;;;16.52;9.15;;;11.90;66.80;;;;;;4968080;28;20038;-79
2022/03/11 11:51:43;;;;;;;15.82;9.70;;;11.90;66.60;;;;;;4984465;28;20049;-79
2022/03/11 11:54:11;;;;;;;16.30;10.48;;;12.00;65.30;;;;;;4962411;28;20068;-79
2022/03/11 11:56:44;;;;;;;17.73;9.48;;;12.00;65.00;;;;;;4988324;28;20033;-79
2022/03/11 11:59:11;;;;;;;14.77;9.50;;;12.10;64.70;;;;;;4988226;28;20582;-79
2022/03/11 12:01:39;;;;;;;13.55;9.55;;;12.10;64.30;;;;;;4987163;28;20038;-80
2022/03/11 12:04:37;;;;;;;15.15;9.30;;;12.30;63.90;;;;;;4987388;28;20034;-79
2022/03/11 12:07:16;;;;;;;16.20;9.07;;;12.60;62.60;;;;;;4975226;28;20033;-77
2022/03/11 12:09:42;;;;;;;15.63;9.80;;;12.70;62.50;;;;;;4984840;28;20078;-78
2022/03/11 12:12:24;;;;;;;11.60;8.88;;;12.90;61.10;;;;;;4986654;28;20447;-78
2022/03/11 12:15:05;;;;;;;13.57;9.57;;;12.90;62.00;;;;;;4986881;28;20030;-78
2022/03/11 12:17:38;;;;;;;14.73;9.95;;;12.50;61.50;;;;;;4968080;28;20073;-79
2022/03/11 12:20:25;;;;;;;17.52;9.43;;;12.80;61.30;;;;;;4985220;28;20037;-79
2022/03/11 12:23:08;;;;;;;15.82;10.27;;;13.10;61.10;;;;;;4991117;28;20499;-71
2022/03/11 12:25:35;;;;;;;15.95;9.93;;;13.50;58.40;;;;;;4992808;28;20081;-71
2022/03/11 12:28:02;;;;;;;15.55;9.30;;;13.40;58.20;;;;;;4993063;28;20053;-72
2022/03/11 12:30:41;;;;;;;14.80;9.48;;;13.10;58.90;;;;;;4993211;28;20494;-72
2022/03/11 12:33:09;;;;;;;19.10;10.35;;;13.10;59.30;;;;;;4995158;28;20025;-72
2022/03/11 12:35:36;;;;;;;14.88;11.02;;;13.00;61.10;;;;;;4996643;28;20026;-72
2022/03/11 12:38:03;;;;;;;13.95;10.23;;;13.10;62.30;;;;;;4996840;28;20408;-71
2022/03/11 12:40:30;;;;;;;16.77;11.00;;;13.10;61.80;;;;;;4996653;28;20046;-71